createdAt,value
2019-05-19T00:00:53.292Z,54.54
2019-05-19T00:03:26.112Z,50.44
2019-05-19T00:05:59.974Z,52.22
2019-05-19T00:08:32.776Z,54.07
2019-05-19T00:11:05.727Z,55.53
2019-05-19T00:13:38.594Z,57.03
2019-05-19T00:16:12.375Z,58.50
2019-05-19T00:18:45.229Z,59.13
2019-05-19T00:21:18.153Z,60.21
2019-05-19T00:23:51.417Z,60.90
2019-05-19T00:26:24.556Z,62.04
2019-05-19T00:28:57.438Z,62.45
2019-05-19T00:31:30.271Z,63.40
2019-05-19T00:34:03.263Z,54.94
2019-05-19T00:36:36.454Z,50.32
2019-05-19T00:39:09.361Z,52.35
2019-05-19T00:41:42.167Z,54.36
2019-05-19T00:44:15.266Z,56.21
2019-05-19T00:46:49.371Z,57.06
2019-05-19T00:49:22.234Z,58.27
2019-05-19T00:51:55.037Z,59.45
2019-05-19T00:54:28.062Z,60.61
2019-05-19T00:57:02.158Z,61.38
2019-05-19T00:59:36.769Z,61.98
2019-05-19T01:02:09.579Z,63.00
2019-05-19T01:04:42.733Z,63.47
2019-05-19T01:07:15.618Z,54.59
2019-05-19T01:09:48.528Z,50.28
2019-05-19T01:12:21.438Z,52.35
2019-05-19T01:14:54.326Z,54.35
2019-05-19T01:17:28.102Z,56.02
2019-05-19T01:20:01.028Z,57.23
2019-05-19T01:22:35.136Z,58.79
2019-05-19T01:25:08.671Z,60.01
2019-05-19T01:27:41.581Z,60.51
2019-05-19T01:30:17.073Z,61.56
2019-05-19T01:32:49.880Z,62.25
2019-05-19T01:35:22.713Z,63.11
2019-05-19T01:37:55.590Z,55.24
2019-05-19T01:40:28.438Z,50.26
2019-05-19T01:43:01.310Z,52.58
2019-05-19T01:45:34.263Z,54.59
2019-05-19T01:48:07.061Z,56.48
2019-05-19T01:50:40.294Z,57.79
2019-05-19T01:53:13.127Z,59.17
2019-05-19T01:55:47.038Z,60.22
2019-05-19T01:58:20.126Z,61.53
2019-05-19T02:00:52.935Z,61.98
2019-05-19T02:03:25.814Z,63.10
2019-05-19T02:06:00.099Z,62.50
2019-05-19T02:08:33.018Z,50.86
2019-05-19T02:11:05.852Z,51.55
2019-05-19T02:13:38.653Z,54.17
2019-05-19T02:16:11.542Z,56.67
2019-05-19T02:18:44.335Z,58.47
2019-05-19T02:21:17.296Z,60.16
2019-05-19T02:23:50.138Z,60.83
2019-05-19T02:26:23.123Z,63.11
2019-05-19T02:28:55.954Z,60.56
2019-05-19T02:31:28.789Z,52.77
2019-05-19T02:34:02.510Z,52.86
2019-05-19T02:36:35.329Z,55.33
2019-05-19T02:39:08.898Z,57.48
2019-05-19T02:41:44.077Z,58.62
2019-05-19T02:44:19.026Z,60.19
2019-05-19T02:46:55.121Z,61.63
2019-05-19T02:49:30.761Z,63.37
2019-05-19T02:52:05.599Z,61.82
2019-05-19T02:54:38.864Z,53.24
2019-05-19T02:57:11.989Z,52.94
2019-05-19T02:59:46.390Z,55.60
2019-05-19T03:02:19.227Z,57.26
2019-05-19T03:04:52.156Z,59.82
2019-05-19T03:07:25.037Z,61.45
2019-05-19T03:09:57.956Z,62.74
2019-05-19T03:12:30.758Z,62.54
2019-05-19T03:15:03.654Z,53.75
2019-05-19T03:17:36.843Z,52.96
2019-05-19T03:20:09.799Z,55.81
2019-05-19T03:22:42.603Z,58.09
2019-05-19T03:25:15.470Z,60.28
2019-05-19T03:27:48.288Z,61.46
2019-05-19T03:30:39.056Z,62.50
2019-05-19T03:33:12.705Z,61.87
2019-05-19T03:35:45.748Z,52.92
2019-05-19T03:38:18.954Z,53.02
2019-05-19T03:40:51.829Z,55.53
2019-05-19T03:43:24.656Z,57.43
2019-05-19T03:45:57.467Z,59.74
2019-05-19T03:48:30.305Z,61.43
2019-05-19T03:51:03.133Z,62.65
2019-05-19T03:53:36.462Z,63.44
2019-05-19T03:56:09.275Z,54.99
2019-05-19T03:58:42.132Z,52.66
2019-05-19T04:01:14.952Z,55.32
2019-05-19T04:03:47.795Z,57.43
2019-05-19T04:06:20.633Z,59.63
2019-05-19T04:08:53.453Z,61.13
2019-05-19T04:11:26.293Z,62.33
2019-05-19T04:13:59.155Z,61.93
2019-05-19T04:16:32.044Z,53.28
2019-05-19T04:19:04.970Z,53.73
2019-05-19T04:21:48.344Z,56.15
2019-05-19T04:24:12.341Z,58.28
2019-05-19T04:26:45.148Z,60.13
2019-05-19T04:29:18.001Z,61.53
2019-05-19T04:31:50.872Z,62.70
2019-05-19T04:34:23.757Z,61.87
2019-05-19T04:36:56.589Z,53.25
2019-05-19T04:39:29.604Z,53.96
2019-05-19T04:42:02.519Z,56.68
2019-05-19T04:44:35.478Z,58.82
2019-05-19T04:47:08.387Z,61.17
2019-05-19T04:49:42.753Z,61.98
2019-05-19T04:52:17.150Z,63.45
2019-05-19T04:54:50.538Z,62.84
2019-05-19T04:57:23.539Z,53.51
2019-05-19T04:59:56.353Z,53.17
2019-05-19T05:02:29.145Z,56.12
2019-05-19T05:05:02.060Z,58.45
2019-05-19T05:07:35.016Z,60.54
2019-05-19T05:10:07.852Z,62.41
2019-05-19T05:12:40.720Z,63.92
2019-05-19T05:15:13.516Z,55.23
2019-05-19T05:17:46.367Z,53.22
2019-05-19T05:20:19.277Z,55.97
2019-05-19T05:22:52.068Z,58.92
2019-05-19T05:25:24.956Z,60.96
2019-05-19T05:27:57.749Z,62.48
2019-05-19T05:30:30.575Z,61.82
2019-05-19T05:33:03.385Z,54.21
2019-05-19T05:35:36.233Z,54.42
2019-05-19T05:38:09.080Z,57.60
2019-05-19T05:40:41.946Z,59.52
2019-05-19T05:43:14.760Z,61.46
2019-05-19T05:45:47.585Z,63.11
2019-05-19T05:48:21.434Z,60.60
2019-05-19T05:50:54.277Z,53.59
2019-05-19T05:53:27.179Z,54.83
2019-05-19T05:56:00.021Z,57.36
2019-05-19T05:58:32.906Z,59.69
2019-05-19T06:01:05.919Z,61.64
2019-05-19T06:03:38.779Z,63.31
2019-05-19T06:06:11.615Z,62.02
2019-05-19T06:08:44.539Z,53.58
2019-05-19T06:11:17.431Z,53.72
2019-05-19T06:13:50.361Z,57.02
2019-05-19T06:16:23.211Z,60.99
2019-05-19T06:18:56.904Z,62.56
2019-05-19T06:21:30.253Z,60.90
2019-05-19T06:24:03.201Z,53.32
2019-05-19T06:26:36.030Z,54.43
2019-05-19T06:29:09.020Z,57.34
2019-05-19T06:31:42.077Z,60.12
2019-05-19T06:34:14.889Z,62.27
2019-05-19T06:36:47.710Z,63.18
2019-05-19T06:39:20.721Z,59.89
2019-05-19T06:41:53.895Z,54.64
2019-05-19T06:44:26.881Z,56.80
2019-05-19T06:46:59.791Z,58.81
2019-05-19T06:49:32.860Z,60.56
2019-05-19T06:52:05.880Z,61.60
2019-05-19T06:54:38.883Z,62.75
2019-05-19T06:57:11.873Z,61.64
2019-05-19T06:59:44.850Z,53.72
2019-05-19T07:02:17.762Z,51.91
2019-05-19T07:04:50.608Z,55.15
2019-05-19T07:07:23.615Z,58.67
2019-05-19T07:09:58.978Z,61.53
2019-05-19T07:12:32.425Z,64.00
2019-05-19T07:21:49.441Z,62.93
2019-05-19T07:24:22.716Z,62.12
2019-05-19T07:26:56.059Z,56.10
2019-05-19T07:29:29.380Z,54.41
2019-05-19T07:32:02.440Z,56.26
2019-05-19T07:34:35.380Z,58.53
2019-05-19T07:37:11.286Z,62.07
2019-05-19T07:39:44.146Z,62.85
2019-05-19T07:42:17.102Z,53.31
2019-05-19T07:44:49.984Z,54.47
2019-05-19T07:47:22.985Z,56.96
2019-05-19T07:49:55.864Z,59.66
2019-05-19T07:52:28.891Z,62.43
2019-05-19T07:55:01.803Z,62.66
2019-05-19T07:57:34.671Z,55.91
2019-05-19T08:00:09.494Z,53.91
2019-05-19T08:02:42.413Z,55.80
2019-05-19T15:03:47.762Z,51.34
2019-05-19T15:06:20.952Z,51.79
2019-05-19T15:08:53.812Z,51.07
2019-05-19T15:11:26.599Z,50.41
2019-05-19T15:13:59.508Z,51.36
2019-05-19T15:16:32.414Z,51.30
2019-05-19T15:19:05.290Z,52.33
2019-05-19T15:21:38.085Z,52.58
2019-05-19T15:24:13.762Z,52.81
2019-05-19T15:26:46.664Z,50.57
2019-05-19T15:29:19.581Z,50.83
2019-05-19T15:31:52.401Z,51.17
2019-05-19T15:34:25.241Z,51.54
2019-05-19T15:36:58.088Z,51.13
2019-05-19T15:39:30.984Z,51.31
2019-05-19T15:42:03.855Z,51.92
2019-05-19T15:44:36.777Z,49.94
2019-05-19T15:47:10.680Z,49.26
2019-05-19T15:49:43.487Z,48.76
2019-05-19T15:52:16.314Z,49.29
2019-05-19T15:54:49.120Z,51.20
2019-05-19T15:57:22.168Z,51.15
2019-05-19T15:59:55.103Z,51.66
2019-05-19T16:02:27.918Z,51.97
2019-05-19T16:05:00.770Z,53.21
2019-05-19T16:07:33.524Z,53.64
2019-05-19T16:10:06.691Z,54.45
2019-05-19T16:12:39.568Z,54.94
2019-05-19T16:15:13.283Z,55.74
2019-05-19T16:17:46.196Z,56.20
2019-05-19T16:20:19.466Z,57.01
2019-05-19T16:22:56.509Z,57.42
2019-05-19T16:25:29.380Z,58.19
2019-05-19T16:28:02.297Z,58.58
2019-05-19T16:30:36.287Z,59.10
2019-05-19T16:33:09.178Z,59.60
2019-05-19T16:35:42.065Z,60.46
2019-05-19T16:38:15.238Z,60.86
2019-05-19T16:40:48.239Z,61.28
2019-05-19T16:43:21.174Z,61.39
2019-05-19T16:45:54.141Z,62.50
2019-05-19T16:48:27.056Z,57.42
2019-05-19T16:51:04.357Z,54.18
2019-05-19T16:53:37.845Z,55.74
2019-05-19T16:56:11.024Z,57.39
2019-05-19T16:58:45.580Z,58.15
2019-05-19T17:01:20.074Z,59.24
2019-05-19T17:03:53.307Z,59.90
2019-05-19T17:06:26.512Z,60.09
2019-05-19T17:08:59.388Z,60.79
2019-05-19T17:11:35.463Z,61.30
2019-05-19T17:14:08.395Z,62.03
2019-05-19T17:16:41.542Z,61.50
2019-05-19T17:19:14.474Z,61.74
2019-05-19T17:21:47.516Z,61.97
2019-05-19T17:24:20.439Z,62.46
2019-05-19T17:26:53.297Z,58.73
2019-05-19T17:29:27.818Z,52.16
2019-05-19T17:32:05.944Z,54.14
2019-05-19T17:34:35.192Z,55.76
2019-05-19T17:37:08.102Z,56.61
2019-05-19T17:39:40.905Z,56.98
2019-05-19T17:42:13.990Z,57.78
2019-05-19T17:44:47.093Z,58.55
2019-05-19T17:47:20.019Z,59.47
2019-05-19T17:49:52.813Z,59.72
2019-05-19T17:52:25.701Z,60.73
2019-05-19T17:54:58.623Z,60.90
2019-05-19T17:57:32.217Z,61.77
2019-05-19T18:00:06.212Z,62.50
2019-05-19T18:02:39.247Z,60.17
2019-05-19T18:05:12.325Z,53.81
2019-05-19T18:07:45.197Z,54.59
2019-05-19T18:10:18.119Z,56.28
2019-05-19T18:12:51.070Z,57.40
2019-05-19T18:15:23.884Z,58.02
2019-05-19T18:17:58.436Z,57.86
2019-05-19T18:20:31.385Z,57.97
2019-05-19T18:23:04.308Z,58.22
2019-05-19T18:25:37.279Z,58.74
2019-05-19T18:28:10.624Z,59.37
2019-05-19T18:30:43.654Z,59.17
2019-05-19T18:33:18.215Z,59.88
2019-05-19T18:35:51.067Z,60.43
2019-05-19T18:38:24.073Z,60.55
2019-05-19T18:40:56.877Z,60.46
2019-05-19T18:43:29.816Z,60.88
2019-05-19T18:46:02.725Z,61.50
2019-05-19T18:48:38.795Z,61.98
2019-05-19T18:51:11.801Z,62.30
2019-05-19T18:53:46.685Z,62.70
2019-05-19T18:56:22.907Z,58.67
2019-05-19T18:58:56.028Z,52.52
2019-05-19T19:01:33.458Z,54.59
2019-05-19T19:04:08.167Z,56.93
2019-05-19T19:06:41.241Z,58.68
2019-05-19T19:09:14.294Z,59.91
2019-05-19T19:11:47.269Z,61.37
2019-05-19T19:14:20.426Z,62.47
2019-05-19T19:16:53.355Z,59.98
2019-05-19T19:19:29.599Z,53.17
2019-05-19T19:22:04.038Z,55.09
2019-05-19T19:24:38.669Z,56.69
2019-05-19T19:27:11.679Z,58.51
2019-05-19T19:29:44.715Z,59.79
2019-05-19T19:32:17.600Z,60.19
2019-05-19T19:34:50.494Z,60.97
2019-05-19T19:37:23.420Z,61.60
2019-05-19T19:39:56.321Z,62.15
2019-05-19T19:42:29.262Z,63.12
2019-05-19T19:45:02.159Z,59.09
2019-05-19T19:47:36.490Z,52.69
2019-05-19T19:50:09.600Z,54.94
2019-05-19T19:52:42.703Z,57.04
2019-05-19T19:55:15.729Z,58.52
2019-05-19T19:57:48.746Z,59.54
2019-05-19T20:00:42.412Z,60.60
2019-05-19T20:03:16.390Z,61.08
2019-05-19T20:05:50.932Z,61.25
2019-05-19T20:08:23.857Z,62.53
2019-05-19T20:10:56.742Z,60.06
2019-05-19T20:13:29.675Z,51.43
2019-05-19T20:16:02.580Z,52.61
2019-05-19T20:18:35.348Z,55.04
2019-05-19T20:21:08.214Z,56.59
2019-05-19T20:23:41.249Z,57.71
2019-05-19T20:26:14.132Z,58.67
2019-05-19T20:28:47.081Z,59.52
2019-05-19T20:31:19.916Z,60.40
2019-05-19T20:33:52.854Z,61.11
2019-05-19T20:36:26.039Z,62.20
2019-05-19T20:38:58.927Z,62.87
2019-05-19T20:41:31.812Z,60.18
2019-05-19T20:44:05.241Z,52.62
2019-05-19T20:46:38.075Z,51.41
2019-05-19T20:49:11.026Z,54.11
2019-05-19T20:51:44.817Z,55.88
2019-05-19T20:54:17.620Z,57.25
2019-05-19T20:56:50.837Z,58.20
2019-05-19T20:59:24.643Z,59.33
2019-05-19T21:01:57.493Z,60.24
2019-05-19T21:04:30.312Z,61.06
2019-05-19T21:07:03.229Z,61.80
2019-05-19T21:09:36.207Z,62.64
2019-05-19T21:12:09.042Z,62.14
2019-05-19T21:14:42.971Z,53.46
2019-05-19T21:17:15.887Z,51.72
2019-05-19T21:19:50.383Z,53.79
2019-05-19T21:22:23.204Z,55.82
2019-05-19T21:24:56.066Z,57.28
2019-05-19T21:27:29.829Z,58.73
2019-05-19T21:30:02.665Z,59.41
2019-05-19T21:32:35.538Z,60.35
2019-05-19T21:35:09.008Z,61.46
2019-05-19T21:37:41.849Z,62.09
2019-05-19T21:40:14.796Z,63.00
2019-05-19T21:42:47.608Z,61.40
2019-05-19T21:45:20.582Z,53.88
2019-05-19T21:47:53.421Z,50.42
2019-05-19T21:50:26.256Z,52.60
2019-05-19T21:52:59.170Z,54.78
2019-05-19T21:55:31.971Z,56.56
2019-05-19T21:58:04.954Z,57.63
2019-05-19T22:00:37.838Z,58.81
2019-05-19T22:03:10.859Z,60.33
2019-05-19T22:05:52.845Z,60.82
2019-05-19T22:08:18.693Z,61.52
2019-05-19T22:10:51.488Z,62.19
2019-05-19T22:13:24.366Z,62.02
2019-05-19T22:16:11.600Z,53.64
2019-05-19T22:18:31.973Z,52.12
2019-05-19T22:21:04.836Z,54.22
2019-05-19T22:23:37.672Z,56.08
2019-05-19T22:26:10.577Z,57.87
2019-05-19T22:28:43.410Z,59.21
2019-05-19T22:31:16.409Z,60.13
2019-05-19T22:33:49.314Z,61.23
2019-05-19T22:36:22.122Z,62.01
2019-05-19T22:38:55.000Z,63.04
2019-05-19T22:41:27.812Z,62.09
2019-05-19T22:44:00.887Z,53.66
2019-05-19T22:46:34.760Z,52.43
2019-05-19T22:49:07.641Z,55.13
2019-05-19T22:51:40.500Z,57.18
2019-05-19T22:54:13.339Z,59.03
2019-05-19T22:56:46.137Z,59.92
2019-05-19T22:59:20.449Z,60.80
2019-05-19T23:01:53.487Z,61.90
2019-05-19T23:04:26.493Z,63.16
2019-05-19T23:06:59.424Z,62.10
2019-05-19T23:09:32.420Z,55.41
2019-05-19T23:12:05.213Z,51.64
2019-05-19T23:14:39.135Z,54.10
2019-05-19T23:17:11.939Z,56.48
2019-05-19T23:19:45.032Z,58.42
2019-05-19T23:22:17.848Z,59.76
2019-05-19T23:24:51.957Z,60.68
2019-05-19T23:27:24.847Z,61.89
2019-05-19T23:29:57.774Z,63.91
2019-05-19T23:32:30.640Z,59.47
2019-05-19T23:35:03.493Z,54.51
2019-05-19T23:37:36.387Z,56.40
2019-05-19T23:40:10.498Z,58.63
2019-05-19T23:42:43.383Z,60.32
2019-05-19T23:45:16.759Z,61.91
2019-05-19T23:47:49.589Z,63.39
2019-05-19T23:50:22.383Z,62.85
2019-05-19T23:52:55.214Z,54.72
2019-05-19T23:55:27.995Z,53.17
2019-05-19T23:58:00.929Z,55.38
